Terminal Aerodrome Forecast
Issued by NWS Tuscon, AZ

Home | Current Version | Previous Version | Text Only | Print | Product List | Glossary On
Versions: 1 2 3 4 5 6 7 8 9 10 11 12 13 14 15 16 17 18 19 20 21 22 23 24 25
000
FTUS45 KTWC 301720
TAFTUS
TAF
KTUS 301720Z 3018/0118 VRB04KT P6SM SCT090 SCT150
     FM302100 32011KT P6SM VCTS SCT100CB SCT150
     FM010000 34008KT P6SM VCSH SCT100 BKN150
     FM010500 16007KT P6SM SCT080 SCT120=

USA.gov is the U.S. government's official web portal to all federal, state and local government web resources and services.